Time;durP1;ratioP1;P1;durP2;ratioP2;P2;SDS_P1;SDS_P2;PMS_P1;PMS_P2;Temp;Humidity;BMP_temperature;BMP_pressure;BME280_temperature;BME280_humidity;BME280_pressure;Samples;Min_cycle;Max_cycle;Signal;HPM_P1;HPM_P2
2021/11/07 00:01:41;;;;;;;66.53;40.50;;;;;;;3.51;78.86;99588.67;2172786;81;20952;-78
2021/11/07 00:04:42;;;;;;;70.53;39.93;;;;;;;3.53;78.78;99589.16;2171772;81;21029;-80
2021/11/07 00:07:51;;;;;;;68.73;42.77;;;;;;;3.47;78.73;99579.00;2172440;81;20971;-79
2021/11/07 00:10:49;;;;;;;69.17;40.60;;;;;;;3.51;78.96;99577.47;2172534;81;21340;-80
2021/11/07 00:13:48;;;;;;;68.27;41.67;;;;;;;3.50;78.83;99565.36;2172389;81;21007;-78
2021/11/07 00:16:48;;;;;;;67.87;39.53;;;;;;;3.48;78.74;99559.24;2172039;81;20967;-80
2021/11/07 00:20:00;;;;;;;71.03;40.03;;;;;;;3.45;78.81;99543.56;2172719;81;21392;-81
2021/11/07 00:23:02;;;;;;;68.17;41.03;;;;;;;3.42;78.68;99529.22;2172568;81;20972;-79
2021/11/07 00:26:25;;;;;;;73.67;41.63;;;;;;;3.37;78.37;99523.82;2172352;81;20956;-80
2021/11/07 00:29:07;;;;;;;66.10;39.60;;;;;;;3.33;78.51;99518.42;2171676;82;20961;-79
2021/11/07 00:38:41;;;;;;;69.63;40.50;;;;;;;3.13;78.14;99504.10;2172434;82;20981;-79
2021/11/07 00:45:03;;;;;;;65.17;39.90;;;;;;;3.04;78.39;99503.63;2166759;82;20988;-80
2021/11/07 00:48:08;;;;;;;72.37;39.37;;;;;;;3.01;78.55;99497.02;2172699;81;20989;-80
2021/11/07 00:51:07;;;;;;;66.77;39.13;;;;;;;3.01;78.86;99494.45;2172498;81;20956;-79
2021/11/07 00:54:16;;;;;;;75.03;40.50;;;;;;;3.10;79.51;99489.76;2172786;81;20961;-79
2021/11/07 01:03:35;;;;;;;64.50;37.73;;;;;;;3.18;79.04;99482.41;2174435;81;21017;-80
2021/11/07 01:06:36;;;;;;;70.90;37.67;;;;;;;3.14;78.99;99485.23;2189326;81;21324;-80
2021/11/07 01:09:36;;;;;;;73.07;38.70;;;;;;;3.12;78.94;99478.23;2189258;81;20995;-78
2021/11/07 01:12:37;;;;;;;66.97;37.67;;;;;;;3.09;79.06;99467.34;2174484;81;20987;-79
2021/11/07 01:15:37;;;;;;;63.37;35.73;;;;;;;3.10;78.93;99465.25;2189218;81;21016;-80
2021/11/07 01:18:38;;;;;;;64.83;36.70;;;;;;;3.07;78.97;99457.77;2189363;81;20972;-80
2021/11/07 01:21:41;;;;;;;65.50;34.70;;;;;;;3.02;78.90;99452.77;2189281;81;20960;-80
2021/11/07 02:00:04;;;;;;;62.17;32.87;;;;;;;2.76;79.05;99377.96;2292131;77;22801;-78
2021/11/07 02:03:05;;;;;;;58.27;30.90;;;;;;;2.70;79.22;99385.38;2241700;79;20924;-78
2021/11/07 02:06:06;;;;;;;53.70;30.43;;;;;;;2.70;79.23;99369.52;2241858;79;20943;-78
2021/11/07 02:09:07;;;;;;;54.07;29.97;;;;;;;2.73;79.40;99370.95;2241595;79;21000;-78
2021/11/07 02:12:07;;;;;;;53.50;30.03;;;;;;;2.77;79.44;99372.00;2241752;79;20912;-78
2021/11/07 02:15:08;;;;;;;50.03;29.37;;;;;;;2.84;79.51;99374.08;2241582;79;20928;-78
2021/11/07 02:18:08;;;;;;;47.67;26.97;;;;;;;2.89;79.48;99368.75;2241448;79;20990;-78
2021/11/07 02:21:09;;;;;;;59.30;28.00;;;;;;;2.96;79.56;99368.65;2241676;79;20923;-78
2021/11/07 02:24:09;;;;;;;48.13;25.60;;;;;;;3.02;79.52;99362.10;2241824;79;20959;-78
2021/11/07 02:27:10;;;;;;;53.77;27.50;;;;;;;3.10;79.41;99369.81;2241422;79;20990;-78
2021/11/07 02:30:12;;;;;;;48.90;26.00;;;;;;;3.13;79.21;99369.08;2241723;79;21362;-81
2021/11/07 02:33:13;;;;;;;51.37;27.27;;;;;;;3.16;79.04;99360.20;2241788;79;21028;-81
2021/11/07 02:36:13;;;;;;;44.10;26.03;;;;;;;3.18;79.07;99357.30;2241144;79;20965;-79
2021/11/07 02:39:15;;;;;;;40.13;24.47;;;;;;;3.20;78.93;99355.27;2241356;79;21745;-79
2021/11/07 02:42:16;;;;;;;44.03;24.60;;;;;;;3.20;78.83;99355.27;2241205;79;20972;-78
2021/11/07 02:45:16;;;;;;;46.80;25.20;;;;;;;3.22;78.90;99349.30;2241691;79;20968;-81
2021/11/07 02:48:17;;;;;;;43.33;24.23;;;;;;;3.25;78.66;99346.45;2240748;79;21666;-80
2021/11/07 02:51:18;;;;;;;39.83;24.03;;;;;;;3.27;78.53;99356.45;2240538;79;21368;-78
2021/11/07 02:54:18;;;;;;;45.60;24.50;;;;;;;3.25;78.41;99355.48;2241284;79;20979;-79
2021/11/07 02:57:19;;;;;;;47.63;26.60;;;;;;;3.23;78.35;99347.20;2241539;79;20963;-78
2021/11/07 03:00:22;;;;;;;45.60;26.27;;;;;;;3.17;78.19;99342.22;2262928;79;20972;-79
2021/11/07 03:03:23;;;;;;;50.27;26.30;;;;;;;3.13;78.14;99329.09;2262837;79;20931;-77
2021/11/07 03:06:23;;;;;;;42.40;25.43;;;;;;;3.07;77.91;99336.13;2262652;79;21303;-78
2021/11/07 03:09:24;;;;;;;49.30;26.53;;;;;;;2.99;77.91;99336.16;2262867;79;21304;-78
2021/11/07 03:12:25;;;;;;;45.33;26.10;;;;;;;2.89;77.74;99328.78;2262523;79;20979;-78
2021/11/07 03:15:25;;;;;;;45.03;26.07;;;;;;;2.79;77.53;99329.13;2262389;79;20920;-78
2021/11/07 03:18:25;;;;;;;41.93;24.90;;;;;;;2.71;77.40;99335.59;2262215;79;20966;-79
2021/11/07 03:21:26;;;;;;;42.17;24.87;;;;;;;2.64;77.42;99326.67;2262477;79;20988;-80
2021/11/07 03:24:27;;;;;;;43.67;24.00;;;;;;;2.51;76.91;99321.67;2262489;79;20944;-79
2021/11/07 03:27:28;;;;;;;43.23;23.03;;;;;;;2.33;77.21;99316.46;2262031;79;21003;-78
2021/11/07 03:33:42;;;;;;;39.23;23.93;;;;;;;2.02;77.04;99319.53;2235138;79;21003;-79
2021/11/07 03:36:45;;;;;;;43.83;25.13;;;;;;;1.90;77.34;99324.92;2260043;79;20983;-79
2021/11/07 03:39:45;;;;;;;42.27;24.63;;;;;;;1.83;77.82;99321.53;2261629;79;20983;-79
2021/11/07 03:42:46;;;;;;;45.47;24.47;;;;;;;1.73;77.74;99321.41;2262347;79;20983;-79
2021/11/07 03:45:46;;;;;;;43.83;24.17;;;;;;;1.64;77.87;99314.48;2262136;78;20908;-79
2021/11/07 03:48:47;;;;;;;41.33;24.20;;;;;;;1.54;77.89;99313.50;2262287;79;20893;-79
2021/11/07 03:51:47;;;;;;;40.03;23.30;;;;;;;1.43;77.79;99310.73;2262268;79;20979;-78
2021/11/07 03:54:48;;;;;;;44.97;24.57;;;;;;;1.35;77.91;99299.14;2262260;79;21324;-79
2021/11/07 03:57:48;;;;;;;44.27;24.43;;;;;;;1.25;78.10;99292.20;2259081;78;21419;-79
2021/11/07 04:00:49;;;;;;;36.70;22.40;;;;;;;1.18;78.05;99283.67;2227132;79;21003;-78
2021/11/07 04:03:50;;;;;;;35.70;22.43;;;;;;;1.13;78.23;99281.24;2227440;79;20998;-78
2021/11/07 04:06:50;;;;;;;44.70;23.63;;;;;;;1.07;77.84;99272.30;2227091;80;20944;-79
2021/11/07 04:09:51;;;;;;;38.33;21.67;;;;;;;0.99;78.14;99265.45;2227200;79;21371;-78
2021/11/07 04:12:52;;;;;;;50.87;24.60;;;;;;;0.96;78.19;99269.13;2227228;79;21316;-78
2021/11/07 04:15:53;;;;;;;35.43;23.00;;;;;;;0.91;78.77;99258.99;2226857;79;20957;-78
2021/11/07 04:18:54;;;;;;;41.10;25.10;;;;;;;0.87;78.75;99248.05;2227126;79;21032;-78
2021/11/07 04:21:57;;;;;;;48.07;25.80;;;;;;;0.89;79.67;99242.20;2227174;79;20912;-78
2021/11/07 04:24:57;;;;;;;39.90;24.10;;;;;;;0.94;79.93;99234.34;2226843;79;21004;-78
2021/11/07 04:27:57;;;;;;;45.13;25.23;;;;;;;1.02;80.66;99226.17;2227062;79;21430;-80
2021/11/07 04:30:58;;;;;;;41.17;25.33;;;;;;;1.18;81.51;99223.24;2226776;79;21347;-79
2021/11/07 04:33:58;;;;;;;37.53;23.10;;;;;;;1.37;82.05;99219.09;2226869;79;20956;-78
2021/11/07 04:36:59;;;;;;;40.47;25.60;;;;;;;1.60;82.83;99210.50;2227212;79;20916;-79
2021/11/07 04:40:03;;;;;;;41.63;24.27;;;;;;;1.87;82.61;99209.80;2227234;79;20995;-78
2021/11/07 04:43:04;;;;;;;40.33;23.42;;;;;;;2.05;82.14;99210.26;2227145;79;20971;-79
2021/11/07 04:46:04;;;;;;;36.97;23.90;;;;;;;2.17;81.95;99196.31;2226710;79;21338;-78
2021/11/07 04:49:05;;;;;;;36.93;24.30;;;;;;;2.28;81.54;99203.69;2226145;79;20956;-78
2021/11/07 04:52:05;;;;;;;37.53;23.67;;;;;;;2.29;80.94;99199.91;2227304;79;21215;-77
2021/11/07 04:55:08;;;;;;;44.23;23.67;;;;;;;2.30;81.01;99190.48;2226899;79;20944;-78
2021/11/07 04:58:09;;;;;;;42.43;26.00;;;;;;;2.28;80.70;99183.97;2230513;79;21031;-77
2021/11/07 05:01:16;;;;;;;40.33;25.23;;;;;;;2.28;80.60;99178.81;2262296;79;20916;-77
2021/11/07 05:04:16;;;;;;;45.60;27.17;;;;;;;2.25;80.40;99167.08;2262250;79;20967;-78
2021/11/07 05:07:17;;;;;;;41.00;24.83;;;;;;;2.25;80.41;99169.65;2261868;79;21398;-77
2021/11/07 05:10:17;;;;;;;37.67;24.23;;;;;;;2.25;80.34;99160.63;2261956;79;21415;-78
2021/11/07 05:13:18;;;;;;;37.20;23.27;;;;;;;2.21;80.26;99141.97;2261316;79;20999;-77
2021/11/07 05:16:18;;;;;;;36.97;22.87;;;;;;;2.20;80.28;99144.95;2261980;79;20967;-77
2021/11/07 05:19:19;;;;;;;34.83;21.60;;;;;;;2.20;80.21;99140.20;2262063;79;21003;-77
2021/11/07 05:22:19;;;;;;;35.90;23.10;;;;;;;2.18;80.24;99139.25;2262246;79;21304;-77
2021/11/07 05:25:20;;;;;;;37.23;22.20;;;;;;;2.20;80.33;99141.49;2262507;79;20959;-78
2021/11/07 05:28:21;;;;;;;33.23;21.47;;;;;;;2.20;80.22;99137.63;2262077;79;20975;-78
2021/11/07 05:31:21;;;;;;;38.97;23.47;;;;;;;2.21;80.25;99132.55;2262179;79;20956;-77
2021/11/07 05:34:22;;;;;;;36.60;23.23;;;;;;;2.23;80.20;99123.61;2261562;79;20963;-77
2021/11/07 05:37:22;;;;;;;37.70;23.40;;;;;;;2.22;80.23;99114.12;2261842;79;21753;-78
2021/11/07 05:40:23;;;;;;;36.40;23.70;;;;;;;2.23;80.20;99117.17;2261778;79;21026;-78
2021/11/07 05:43:23;;;;;;;33.00;21.87;;;;;;;2.25;79.98;99122.00;2262220;79;20936;-78
2021/11/07 05:46:24;;;;;;;40.33;24.60;;;;;;;2.22;79.99;99115.41;2262202;79;20975;-80
2021/11/07 05:49:24;;;;;;;39.77;24.37;;;;;;;2.20;79.75;99124.34;2262462;79;20943;-80
2021/11/07 05:52:26;;;;;;;37.43;23.07;;;;;;;2.19;79.73;99120.41;2262201;79;20920;-81
2021/11/07 05:55:27;;;;;;;32.47;22.10;;;;;;;2.17;79.53;99127.17;2262177;79;21012;-83
2021/11/07 05:58:27;;;;;;;33.20;21.47;;;;;;;2.16;79.44;99126.30;2258577;79;21062;-81
2021/11/07 06:01:28;;;;;;;48.20;34.53;;;;;;;2.09;78.96;99116.50;2227598;79;21343;-81
2021/11/07 06:04:28;;;;;;;33.10;22.23;;;;;;;2.05;79.29;99121.42;2227381;79;20948;-81
2021/11/07 06:07:29;;;;;;;32.83;21.83;;;;;;;2.14;79.89;99125.34;2227210;79;21015;-81
2021/11/07 06:10:29;;;;;;;28.27;19.97;;;;;;;2.30;80.01;99117.06;2227359;79;20956;-82
2021/11/07 06:13:30;;;;;;;37.67;19.57;;;;;;;2.43;79.68;99120.72;2227255;79;20944;-81
2021/11/07 06:16:30;;;;;;;34.13;20.33;;;;;;;2.49;78.88;99109.01;2227293;79;20952;-80
2021/11/07 06:19:34;;;;;;;35.50;19.27;;;;;;;2.47;78.82;99107.17;2227215;80;20987;-81
2021/11/07 06:22:34;;;;;;;86.13;59.83;;;;;;;2.48;78.62;99095.64;2226580;79;21308;-81
2021/11/07 06:25:36;;;;;;;128.27;84.53;;;;;;;2.90;86.76;99090.75;2227187;79;20964;-81
2021/11/07 06:28:36;;;;;;;56.27;37.00;;;;;;;4.01;83.69;99094.77;2227047;79;21016;-80
2021/11/07 06:31:37;;;;;;;34.33;23.17;;;;;;;4.22;78.38;99089.19;2226896;80;21004;-80
2021/11/07 06:34:38;;;;;;;29.83;20.70;;;;;;;4.00;76.89;99082.27;2226769;79;20948;-81
2021/11/07 06:37:39;;;;;;;27.80;19.53;;;;;;;3.86;76.97;99091.14;2226544;79;21010;-80
2021/11/07 06:40:40;;;;;;;27.93;18.50;;;;;;;3.83;76.76;99093.19;2227258;79;21485;-80
2021/11/07 06:43:40;;;;;;;22.57;16.93;;;;;;;3.84;76.65;99091.48;2226595;79;21338;-82
2021/11/07 06:46:41;;;;;;;25.10;16.03;;;;;;;3.94;77.04;99080.72;2226948;79;21415;-81
2021/11/07 06:49:42;;;;;;;22.67;15.80;;;;;;;4.13;77.35;99071.61;2227150;79;20948;-80
2021/11/07 06:52:44;;;;;;;28.27;16.90;;;;;;;4.35;77.12;99064.34;2227252;79;20984;-81
2021/11/07 06:55:44;;;;;;;21.67;15.70;;;;;;;4.59;76.84;99066.13;2227741;80;21043;-80
2021/11/07 06:58:45;;;;;;;200.33;130.23;;;;;;;4.76;76.40;99063.36;2230682;79;20984;-83
2021/11/07 07:01:45;;;;;;;90.60;56.53;;;;;;;5.46;85.74;99054.74;2256277;79;20949;-80
2021/11/07 07:04:46;;;;;;;45.03;27.37;;;;;;;7.70;79.08;99040.12;2254935;79;20959;-79
2021/11/07 07:07:50;;;;;;;28.80;20.17;;;;;;;7.48;72.11;99033.47;2254950;79;21006;-78
2021/11/07 07:11:02;;;;;;;30.03;19.50;;;;;;;6.94;71.35;99030.67;2255222;79;20963;-79
2021/11/07 07:14:04;;;;;;;25.03;17.17;;;;;;;6.72;71.38;99041.22;2254417;79;21374;-79
2021/11/07 07:20:36;;;;;;;24.10;16.43;;;;;;;6.64;71.33;99031.03;2228834;79;21012;-78
2021/11/07 07:26:51;;;;;;;17.90;12.73;;;;;;;6.89;70.38;99033.52;2255184;79;21032;-80
2021/11/07 07:29:55;;;;;;;15.27;11.20;;;;;;;7.10;70.37;99037.61;2252995;79;20963;-79
2021/11/07 07:36:10;;;;;;;287.10;200.70;;;;;;;7.54;74.44;99029.33;2255667;79;20983;-81
2021/11/07 07:39:11;;;;;;;43.50;29.27;;;;;;;9.05;74.25;99012.60;2255642;79;21019;-79
2021/11/07 07:42:11;;;;;;;18.77;13.73;;;;;;;9.54;67.21;99001.02;2255569;79;20955;-79
2021/11/07 07:45:13;;;;;;;14.07;10.93;;;;;;;9.17;65.45;99005.03;2255595;79;20900;-78
2021/11/07 07:48:14;;;;;;;14.33;11.10;;;;;;;8.88;65.56;98993.61;2255324;79;21006;-79
2021/11/07 07:51:15;;;;;;;15.70;12.50;;;;;;;8.77;66.06;98989.02;2255211;79;21046;-78
2021/11/07 07:54:16;;;;;;;16.10;11.37;;;;;;;8.59;66.11;98985.15;2254735;79;21016;-77
2021/11/07 07:57:16;;;;;;;14.90;10.93;;;;;;;8.49;66.12;98975.81;2254084;79;20936;-78
2021/11/07 08:00:17;;;;;;;12.30;10.20;;;;;;;8.53;65.63;98973.73;2258431;78;21007;-78
2021/11/07 08:03:17;;;;;;;15.47;11.10;;;;;;;8.54;65.23;98973.77;2262213;79;21414;-78
2021/11/07 08:06:18;;;;;;;17.77;13.80;;;;;;;8.61;65.73;98970.87;2262057;79;20948;-78
2021/11/07 08:09:20;;;;;;;390.23;293.57;;;;;;;8.70;64.97;98969.80;2262442;79;21003;-83
2021/11/07 08:12:21;;;;;;;191.37;134.40;;;;;;;9.12;71.58;98961.09;2262461;79;20998;-79
2021/11/07 08:15:21;;;;;;;28.37;16.33;;;;;;;10.33;67.36;98943.22;2262212;79;20963;-81
2021/11/07 08:18:22;;;;;;;12.37;10.63;;;;;;;10.24;62.72;98930.05;2262175;79;21026;-79
2021/11/07 08:21:25;;;;;;;16.43;10.87;;;;;;;9.88;61.36;98925.99;2262003;79;21296;-80
2021/11/07 08:24:26;;;;;;;12.97;10.70;;;;;;;9.69;61.16;98933.06;2261884;79;21012;-79
2021/11/07 08:27:27;;;;;;;12.33;9.83;;;;;;;9.47;61.11;98931.36;2261771;79;20936;-78
2021/11/07 08:30:27;;;;;;;12.17;9.70;;;;;;;9.41;61.93;98922.56;2261877;79;21015;-79
2021/11/07 08:33:28;;;;;;;47.33;31.80;;;;;;;9.38;61.31;98906.45;2262418;79;20932;-79
2021/11/07 08:36:59;;;;;;;292.97;210.60;;;;;;;9.25;62.58;98904.48;2262626;79;20935;-82
2021/11/07 08:39:38;;;;;;;28.20;21.33;;;;;;;9.56;67.82;98894.20;2257590;79;20955;-77
2021/11/07 08:42:45;;;;;;;17.37;11.33;;;;;;;9.95;61.35;98887.42;2260910;79;21012;-78
2021/11/07 09:02:35;;;;;;;13.07;11.00;;;;;;;10.49;59.26;98881.28;2261971;79;21496;-77
2021/11/07 09:08:40;;;;;;;17.07;11.80;;;;;;;10.60;59.20;98865.75;2257890;79;21015;-79
2021/11/07 09:11:48;;;;;;;223.83;162.10;;;;;;;10.57;59.01;98860.06;2262124;78;20952;-81
2021/11/07 09:14:43;;;;;;;234.27;163.83;;;;;;;10.61;62.83;98853.15;2261144;79;21406;-82
2021/11/07 09:17:44;;;;;;;78.97;53.07;;;;;;;11.31;61.92;98859.14;2262508;79;20995;-78
2021/11/07 09:21:36;;;;;;;14.90;11.73;;;;;;;12.17;56.80;98861.59;2261686;79;21375;-77
2021/11/07 09:23:51;;;;;;;14.30;11.47;;;;;;;11.68;56.88;98857.27;2257800;79;21007;-77
2021/11/07 09:26:50;;;;;;;12.13;9.60;;;;;;;11.38;57.42;98847.45;2261530;79;21035;-78
2021/11/07 09:33:07;;;;;;;12.05;9.78;;;;;;;10.94;57.64;98838.28;2234911;79;21004;-78
2021/11/07 09:36:14;;;;;;;14.53;10.20;;;;;;;10.80;57.73;98840.31;2259114;79;21036;-78
2021/11/07 09:39:18;;;;;;;12.57;9.70;;;;;;;10.63;58.38;98830.13;2259023;79;21047;-77
2021/11/07 09:42:30;;;;;;;10.63;8.23;;;;;;;10.55;58.49;98833.50;2259106;79;20943;-78
2021/11/07 09:45:22;;;;;;;10.40;9.27;;;;;;;10.48;57.95;98820.81;2258467;79;20960;-79
2021/11/07 09:48:27;;;;;;;13.93;10.43;;;;;;;10.46;57.74;98812.09;2260551;79;21015;-77
2021/11/07 09:51:31;;;;;;;11.50;9.17;;;;;;;10.42;58.00;98807.69;2261045;79;21007;-77
2021/11/07 09:54:28;;;;;;;16.00;12.43;;;;;;;10.40;58.44;98796.33;2260798;79;21011;-77
2021/11/07 09:57:29;;;;;;;19.07;12.90;;;;;;;10.44;59.30;98784.67;2262005;79;21340;-77
2021/11/07 10:00:29;;;;;;;13.27;10.03;;;;;;;10.58;59.50;98780.91;2261729;78;21023;-77
2021/11/07 10:03:32;;;;;;;12.40;9.40;;;;;;;10.64;58.21;98771.83;2261875;79;20944;-77
2021/11/07 10:06:36;;;;;;;14.97;11.80;;;;;;;10.63;57.72;98761.38;2261947;79;20955;-78
2021/11/07 10:09:37;;;;;;;12.83;9.93;;;;;;;10.64;58.51;98753.99;2261445;79;20987;-77
2021/11/07 10:12:40;;;;;;;12.67;9.00;;;;;;;10.64;57.18;98746.16;2261327;79;21465;-77
2021/11/07 10:15:47;;;;;;;126.03;91.80;;;;;;;10.57;56.94;98732.61;2261850;79;21347;-80
2021/11/07 10:18:57;;;;;;;288.87;215.33;;;;;;;10.66;60.67;98732.27;2261477;79;21039;-81
2021/11/07 10:21:48;;;;;;;29.63;20.72;;;;;;;12.08;64.30;98722.83;2259693;79;20944;-78
2021/11/07 10:24:48;;;;;;;16.10;10.70;;;;;;;12.39;53.67;98710.75;2262398;78;20939;-79
2021/11/07 10:27:50;;;;;;;11.35;9.65;;;;;;;11.77;55.35;98708.72;2262631;79;20948;-78
2021/11/07 10:30:50;;;;;;;22.62;17.62;;;;;;;11.38;55.02;98695.87;2262392;79;21022;-78
2021/11/07 10:34:22;;;;;;;15.27;9.50;;;;;;;11.07;56.10;98689.53;2262500;78;20956;-79
2021/11/07 10:53:13;;;;;;;13.73;11.93;;;;;;;11.19;55.88;98646.94;2262155;79;21035;-78
2021/11/07 10:56:09;;;;;;;10.68;7.40;;;;;;;11.35;55.91;98654.47;2260909;79;21410;-79
2021/11/07 10:59:10;;;;;;;14.33;8.95;;;;;;;11.39;54.98;98640.12;2261950;79;20991;-79
2021/11/07 11:02:10;;;;;;;10.10;8.25;;;;;;;11.36;54.90;98649.69;2229022;78;21067;-79
2021/11/07 11:05:12;;;;;;;12.20;8.15;;;;;;;11.28;54.81;98639.19;2227428;79;21320;-78
2021/11/07 11:08:17;;;;;;;10.63;8.85;;;;;;;11.33;54.72;98645.31;2227293;79;21011;-79
2021/11/07 11:14:25;;;;;;;14.38;10.00;;;;;;;11.35;54.79;98628.34;2216224;80;20932;-78
2021/11/07 11:17:43;;;;;;;13.03;7.97;;;;;;;11.45;54.38;98624.47;2226792;79;21012;-79
2021/11/07 11:20:43;;;;;;;11.95;7.60;;;;;;;11.43;53.92;98613.56;2225761;79;21051;-79
2021/11/07 11:23:38;;;;;;;99.22;73.62;;;;;;;11.44;54.35;98611.39;2226385;79;21367;-79
2021/11/07 11:32:50;;;;;;;10.53;8.13;;;;;;;12.72;51.98;98605.17;2216144;80;21387;-79
2021/11/07 11:36:22;;;;;;;17.80;12.23;;;;;;;12.54;50.68;98590.78;2226965;79;20993;-79
2021/11/07 11:39:13;;;;;;;13.32;7.70;;;;;;;12.26;51.27;98595.12;2225315;79;21018;-78
2021/11/07 11:42:18;;;;;;;17.00;13.40;;;;;;;12.09;51.59;98590.72;2226116;79;20991;-78
2021/11/07 11:45:16;;;;;;;12.03;8.18;;;;;;;12.04;51.45;98587.22;2226477;79;21415;-77
2021/11/07 11:51:48;;;;;;;126.62;93.80;;;;;;;11.80;51.49;98595.88;2215633;80;20947;-79
2021/11/07 11:57:55;;;;;;;19.80;13.65;;;;;;;11.60;53.66;98590.11;2216124;80;21015;-78
2021/11/07 12:01:02;;;;;;;13.83;10.03;;;;;;;11.45;54.00;98572.20;2226676;78;21102;-78
2021/11/07 12:04:34;;;;;;;10.82;9.00;;;;;;;11.48;53.92;98570.91;2226439;79;20951;-78
2021/11/07 12:07:07;;;;;;;11.45;7.50;;;;;;;11.58;53.70;98565.70;2225377;80;20964;-78
2021/11/07 12:10:15;;;;;;;9.70;8.18;;;;;;;11.56;52.67;98568.31;2226829;79;21372;-78
2021/11/07 12:13:10;;;;;;;9.40;7.45;;;;;;;11.60;52.76;98567.45;2225665;79;21140;-77
2021/11/07 12:16:19;;;;;;;12.60;8.05;;;;;;;11.76;53.05;98558.79;2226474;79;21343;-80
2021/11/07 12:19:18;;;;;;;14.68;10.63;;;;;;;11.75;52.72;98543.09;2227083;79;20980;-79
2021/11/07 12:22:20;;;;;;;12.82;7.33;;;;;;;11.65;52.13;98550.48;2226989;79;20972;-78
2021/11/07 12:25:20;;;;;;;9.93;8.03;;;;;;;11.45;51.12;98560.44;2227088;79;20912;-79
2021/11/07 12:28:21;;;;;;;86.78;64.12;;;;;;;11.26;52.37;98548.56;2227546;79;21379;-80
2021/11/07 12:31:22;;;;;;;84.90;59.67;;;;;;;11.21;55.53;98544.63;2227097;79;21011;-80
2021/11/07 12:34:24;;;;;;;18.57;14.40;;;;;;;11.40;55.16;98551.70;2226304;79;20991;-79
2021/11/07 12:40:45;;;;;;;7.47;6.50;;;;;;;10.95;52.16;98551.45;2226806;79;21011;-77
2021/11/07 12:43:45;;;;;;;9.43;7.07;;;;;;;10.75;52.63;98544.81;2226629;79;20979;-78
2021/11/07 12:46:57;;;;;;;7.60;6.20;;;;;;;10.65;52.72;98545.18;2227152;79;20948;-78
2021/11/07 12:49:57;;;;;;;11.53;9.00;;;;;;;10.54;52.94;98540.32;2226967;79;20987;-78
2021/11/07 12:52:59;;;;;;;8.87;6.47;;;;;;;10.48;53.55;98541.15;2226722;79;21379;-77
2021/11/07 12:55:59;;;;;;;16.40;12.33;;;;;;;10.47;53.89;98535.92;2226909;79;20945;-78
2021/11/07 12:59:01;;;;;;;10.80;7.13;;;;;;;10.44;54.23;98530.68;2226913;79;21411;-78
2021/11/07 13:02:05;;;;;;;8.10;6.50;;;;;;;10.43;53.69;98537.63;2226668;79;20995;-77
2021/11/07 13:05:12;;;;;;;10.48;7.60;;;;;;;10.40;53.89;98532.79;2226449;79;20995;-78
2021/11/07 13:08:12;;;;;;;9.47;7.33;;;;;;;10.37;54.09;98528.85;2226137;79;21023;-77
2021/11/07 13:11:25;;;;;;;15.17;9.97;;;;;;;10.37;54.02;98527.12;2225660;79;21354;-76
2021/11/07 13:14:46;;;;;;;10.07;7.67;;;;;;;10.36;53.78;98520.58;2225974;79;21351;-78
2021/11/07 13:17:47;;;;;;;14.13;8.15;;;;;;;10.35;53.76;98512.31;2225911;79;20979;-77
2021/11/07 13:20:50;;;;;;;9.73;6.07;;;;;;;10.28;53.33;98506.18;2226313;79;21020;-79
2021/11/07 13:30:13;;;;;;;256.27;193.07;;;;;;;10.20;53.50;98506.55;2215684;80;21398;-81
2021/11/07 13:33:07;;;;;;;84.77;62.83;;;;;;;10.69;64.98;98501.27;2226482;79;21016;-77
2021/11/07 13:36:08;;;;;;;22.93;15.33;;;;;;;11.90;59.86;98497.39;2226946;79;20936;-78
2021/11/07 13:39:09;;;;;;;15.70;10.97;;;;;;;11.74;52.13;98494.28;2227120;79;21005;-78
2021/11/07 13:42:14;;;;;;;10.27;6.47;;;;;;;11.19;51.14;98495.41;2226914;79;20909;-78
2021/11/07 13:45:12;;;;;;;11.73;8.60;;;;;;;10.83;51.55;98507.44;2226717;79;21000;-78
2021/11/07 13:48:13;;;;;;;11.53;8.07;;;;;;;10.58;51.32;98499.02;2227077;79;21324;-78
2021/11/07 13:51:13;;;;;;;13.37;8.57;;;;;;;10.44;51.76;98498.94;2226963;79;20995;-78
2021/11/07 13:54:14;;;;;;;9.50;7.00;;;;;;;10.38;51.94;98494.95;2226608;79;21003;-77
2021/11/07 13:57:14;;;;;;;11.27;6.30;;;;;;;10.31;51.90;98489.24;2226982;79;20947;-79
2021/11/07 14:00:15;;;;;;;10.20;6.83;;;;;;;10.24;52.10;98491.80;2227952;79;21011;-77
2021/11/07 14:03:15;;;;;;;7.73;6.17;;;;;;;10.15;51.91;98488.22;2261374;79;20948;-78
2021/11/07 14:06:22;;;;;;;10.80;6.63;;;;;;;10.06;51.63;98482.94;2261350;79;21346;-78
2021/11/07 14:09:19;;;;;;;9.70;7.00;;;;;;;9.96;51.52;98485.45;2261209;79;21008;-78
2021/11/07 14:12:22;;;;;;;10.50;7.67;;;;;;;9.82;51.28;98476.21;2262212;79;20998;-78
2021/11/07 14:15:23;;;;;;;13.33;9.07;;;;;;;9.82;51.28;98476.21;2261411;79;20940;-78
2021/11/07 14:18:27;;;;;;;11.80;8.20;;;;;;;9.78;52.06;98481.83;2261702;78;21067;-78
2021/11/07 14:21:27;;;;;;;13.37;7.37;;;;;;;9.72;52.28;98470.47;2261431;79;21071;-78
2021/11/07 14:24:30;;;;;;;210.30;148.57;;;;;;;9.69;52.97;98470.44;2261869;79;20948;-81
2021/11/07 14:27:35;;;;;;;214.03;153.93;;;;;;;10.27;59.26;98468.34;2261659;79;20943;-77
2021/11/07 14:30:35;;;;;;;25.10;17.83;;;;;;;11.31;58.10;98460.22;2260869;79;21410;-77
2021/11/07 14:33:43;;;;;;;13.10;8.63;;;;;;;11.03;51.92;98458.34;2261346;79;20964;-77
2021/11/07 14:36:44;;;;;;;13.60;8.77;;;;;;;10.59;52.41;98459.02;2260004;79;21383;-77
2021/11/07 14:39:46;;;;;;;10.80;7.30;;;;;;;10.32;52.60;98461.42;2260741;79;20976;-77
2021/11/07 14:42:55;;;;;;;12.23;7.97;;;;;;;10.07;52.64;98463.82;2261589;79;20959;-78
2021/11/07 14:49:20;;;;;;;10.18;8.35;;;;;;;9.76;53.49;98464.42;2235172;79;20943;-78
2021/11/07 14:55:14;;;;;;;10.57;8.20;;;;;;;9.55;54.06;98453.37;2257601;79;21020;-78
2021/11/07 15:01:55;;;;;;;13.47;10.20;;;;;;;9.44;54.53;98449.33;2261740;79;21042;-79
2021/11/07 15:05:12;;;;;;;15.08;10.32;;;;;;;9.39;54.73;98456.22;2260143;79;21075;-78
2021/11/07 15:08:01;;;;;;;17.85;10.30;;;;;;;9.35;54.93;98458.35;2259531;79;20991;-78
2021/11/07 15:14:12;;;;;;;472.73;344.87;;;;;;;9.34;55.08;98451.40;2235524;79;21019;-81
2021/11/07 15:17:10;;;;;;;116.70;76.73;;;;;;;9.83;65.53;98451.45;2261811;79;21334;-77
2021/11/07 15:20:10;;;;;;;27.00;17.73;;;;;;;10.76;55.02;98453.45;2261784;79;21011;-79
2021/11/07 15:23:11;;;;;;;16.30;10.43;;;;;;;10.36;53.90;98450.14;2261707;79;21367;-77
2021/11/07 15:26:14;;;;;;;16.70;11.20;;;;;;;10.01;54.42;98457.69;2261522;79;20960;-78
2021/11/07 15:29:14;;;;;;;16.73;13.20;;;;;;;9.77;54.79;98457.05;2261933;79;20956;-78
2021/11/07 15:32:15;;;;;;;14.17;9.60;;;;;;;9.62;54.87;98462.13;2261804;79;20999;-78
2021/11/07 15:35:16;;;;;;;14.67;11.00;;;;;;;9.48;55.19;98459.35;2262304;79;21335;-77
2021/11/07 15:38:17;;;;;;;16.83;11.07;;;;;;;9.36;55.44;98460.10;2262098;79;21387;-78
2021/11/07 15:41:17;;;;;;;14.33;10.20;;;;;;;9.30;55.53;98455.25;2262289;79;20975;-78
2021/11/07 15:44:18;;;;;;;12.80;9.83;;;;;;;9.28;55.99;98453.94;2262341;79;20944;-78
2021/11/07 15:47:23;;;;;;;16.83;11.40;;;;;;;9.23;55.80;98459.52;2262215;79;20979;-77
2021/11/07 15:50:29;;;;;;;13.00;10.07;;;;;;;9.20;55.90;98462.09;2261498;79;21063;-77
2021/11/07 15:53:31;;;;;;;14.57;10.67;;;;;;;9.17;55.91;98464.66;2261438;79;20997;-79
2021/11/07 15:56:37;;;;;;;17.63;12.30;;;;;;;9.12;56.00;98470.25;2261704;79;21459;-78
2021/11/07 15:59:49;;;;;;;16.63;11.07;;;;;;;9.06;56.09;98463.24;2261197;79;20971;-78
2021/11/07 16:12:23;;;;;;;129.73;84.77;;;;;;;9.00;56.88;98459.69;2255831;79;21012;-80
2021/11/07 16:16:31;;;;;;;533.00;408.75;;;;;;;9.18;60.21;98463.38;2254748;79;20963;-79
2021/11/07 16:18:28;;;;;;;63.77;44.37;;;;;;;11.60;68.35;98464.63;2251399;79;21015;-80
2021/11/07 16:21:30;;;;;;;15.73;11.87;;;;;;;11.76;52.01;98468.58;2255903;79;20944;-79
2021/11/07 16:24:32;;;;;;;16.77;10.93;;;;;;;10.80;53.14;98468.26;2256026;79;20925;-80
2021/11/07 16:27:32;;;;;;;17.23;11.43;;;;;;;10.22;53.90;98472.22;2256297;79;20947;-80
2021/11/07 16:30:33;;;;;;;14.37;9.33;;;;;;;9.84;53.99;98479.70;2256252;79;21316;-80
2021/11/07 16:33:39;;;;;;;15.53;10.97;;;;;;;9.53;54.99;98480.69;2256083;79;21012;-80
2021/11/07 16:36:41;;;;;;;15.97;9.60;;;;;;;9.38;55.40;98493.98;2255654;79;20955;-80